Main page
METAR-TAF:

METAR-TAF

Airports :

St. Louis Regional Airport

Alton / St. Louis, Illinois, United States

latitude: 38-54N, longitude: 090-03W, elevation: 544 ft

Current weather observation

The report was made 53 minutes ago, at 12:50 UTC
Wind 10 mph from the East/Southeast
Temperature 64°F
Humidity 100%
Pressure 29.92 in. Hg
Visibility: 7 miles
Scattered clouds at a height of 7500 ft
Overcast at a height of 10000 ft
light rain

METAR: KALN 281250Z 11009KT 7SM -RA SCT075 OVC100 18/18 A2992

Time: 08:43 (13:43 UTC)


TAF: missing

Weather observations and forecasts of more than 4000 airports (METAR and TAF reports).

The available stations are represented by yellow and red dots on the map.

Hover mouse over dot to see the name of the station.

Then click to see weather observations and forecasts.

To change the map : click on the green buttons with a black cross to zoom in, on the green button with a dash to zoom out, or on the green arrows for adjacent maps.


METAR-TAF: